createdAt,value
2023-01-27T00:02:38.508Z,2.67
2023-01-27T00:05:24.211Z,2.70
2023-01-27T00:08:10.082Z,2.70
2023-01-27T00:11:17.802Z,2.72
2023-01-27T00:14:03.415Z,2.75
2023-01-27T00:16:48.862Z,2.78
2023-01-27T00:19:34.496Z,2.81
2023-01-27T00:22:38.664Z,2.84
2023-01-27T00:25:24.540Z,2.87
2023-01-27T00:28:10.007Z,2.87
2023-01-27T00:30:56.972Z,2.86
2023-01-27T00:33:49.577Z,2.87
2023-01-27T00:36:36.428Z,2.88
2023-01-27T00:39:23.179Z,2.86
2023-01-27T00:42:08.691Z,2.87
2023-01-27T00:45:13.613Z,2.85
2023-01-27T00:47:59.513Z,2.81
2023-01-27T00:50:44.964Z,2.77
2023-01-27T00:53:31.267Z,2.75
2023-01-27T00:56:17.159Z,2.71
2023-01-27T00:59:02.901Z,2.67
2023-01-27T01:01:48.499Z,2.67
2023-01-27T01:04:35.432Z,2.67
2023-01-27T01:07:20.771Z,2.65
2023-01-27T01:10:06.773Z,2.66
2023-01-27T01:12:52.949Z,2.64
2023-01-27T01:15:39.268Z,2.61
2023-01-27T01:18:25.283Z,2.59
2023-01-27T01:21:11.368Z,2.53
2023-01-27T01:24:46.146Z,2.52
2023-01-27T01:27:34.135Z,2.46
2023-01-27T01:30:27.472Z,2.43
2023-01-27T01:33:13.268Z,2.37
2023-01-27T01:36:03.569Z,2.34
2023-01-27T01:38:49.301Z,2.32
2023-01-27T01:41:38.836Z,2.31
2023-01-27T01:44:27.987Z,2.32
2023-01-27T01:47:19.597Z,2.33
2023-01-27T01:50:05.506Z,2.32
2023-01-27T01:52:54.406Z,2.31
2023-01-27T01:55:39.877Z,2.28
2023-01-27T01:58:28.052Z,2.29
2023-01-27T02:01:15.012Z,2.25
2023-01-27T02:04:01.246Z,2.25
2023-01-27T02:07:26.018Z,2.25
2023-01-27T02:10:13.574Z,2.24
2023-01-27T02:12:59.244Z,2.24
2023-01-27T02:15:45.018Z,2.25
2023-01-27T02:18:30.691Z,2.25
2023-01-27T02:21:16.204Z,2.23
2023-01-27T02:24:06.476Z,2.24
2023-01-27T02:26:51.916Z,2.23
2023-01-27T02:29:37.807Z,2.24
2023-01-27T02:32:24.477Z,2.23
2023-01-27T02:35:12.210Z,2.23
2023-01-27T02:37:57.963Z,2.18
2023-01-27T02:40:43.545Z,2.17
2023-01-27T02:43:29.851Z,2.11
2023-01-27T02:46:16.088Z,2.13
2023-01-27T02:49:01.957Z,2.14
2023-01-27T02:51:47.895Z,2.14
2023-01-27T02:54:33.714Z,2.14
2023-01-27T02:57:21.048Z,2.18
2023-01-27T03:00:24.459Z,2.21
2023-01-27T03:03:10.068Z,2.24
2023-01-27T03:05:55.897Z,2.28
2023-01-27T03:08:41.404Z,2.33
2023-01-27T03:11:45.500Z,2.36
2023-01-27T03:14:50.012Z,2.38
2023-01-27T03:17:54.299Z,2.38
2023-01-27T03:20:44.443Z,2.39
2023-01-27T03:23:34.925Z,2.43
2023-01-27T03:26:21.346Z,2.43
2023-01-27T03:29:30.313Z,2.42
2023-01-27T03:32:16.029Z,2.43
2023-01-27T03:35:15.746Z,2.44
2023-01-27T03:46:35.688Z,2.44
2023-01-27T03:53:57.961Z,2.40
2023-01-27T03:56:43.290Z,2.37
2023-01-27T04:08:09.750Z,2.14
2023-01-27T04:19:44.909Z,2.11
2023-01-27T04:26:59.917Z,2.09
2023-01-27T04:29:45.481Z,2.07
2023-01-27T04:37:08.787Z,2.00
2023-01-27T04:39:54.433Z,1.99
2023-01-27T04:47:16.799Z,1.97
2023-01-27T04:50:02.637Z,1.95
2023-01-27T04:57:25.780Z,1.96
2023-01-27T05:00:11.882Z,1.96
2023-01-27T05:07:33.727Z,1.93
2023-01-27T05:10:19.564Z,1.93
2023-01-27T05:22:22.715Z,1.86
2023-01-27T05:25:09.152Z,1.84
2023-01-27T05:32:31.904Z,1.83
2023-01-27T05:35:17.728Z,1.83
2023-01-27T05:42:40.079Z,1.83
2023-01-27T05:45:25.730Z,1.82
2023-01-27T05:52:37.904Z,1.88
2023-01-27T05:55:23.316Z,1.92
2023-01-27T06:02:45.038Z,2.03
2023-01-27T06:05:30.482Z,2.07
2023-01-27T06:12:52.993Z,2.11
2023-01-27T06:15:40.456Z,2.13
2023-01-27T06:19:24.514Z,2.20
2023-01-27T06:26:46.937Z,2.32
2023-01-27T06:30:23.547Z,2.31
2023-01-27T06:37:50.029Z,2.26
2023-01-27T06:40:35.888Z,2.28
2023-01-27T06:43:21.364Z,2.24
2023-01-27T06:50:44.207Z,2.18
2023-01-27T06:53:31.455Z,2.16
2023-01-27T07:00:54.084Z,2.17
2023-01-27T07:03:40.019Z,2.17
2023-01-27T07:07:23.587Z,2.21
2023-01-27T07:10:09.258Z,2.25
2023-01-27T07:21:44.861Z,2.33
2023-01-27T07:24:30.605Z,2.38
2023-01-27T07:31:53.247Z,2.46
2023-01-27T07:38:50.881Z,2.54
2023-01-27T07:46:13.069Z,2.57
2023-01-27T07:49:50.305Z,2.58
2023-01-27T07:52:35.727Z,2.59
2023-01-27T07:55:21.353Z,2.60
2023-01-27T08:02:17.225Z,2.70
2023-01-27T08:05:03.023Z,2.74
2023-01-27T08:07:58.805Z,2.77
2023-01-27T08:10:49.110Z,2.81
2023-01-27T08:13:34.939Z,2.84
2023-01-27T08:16:43.105Z,2.87
2023-01-27T08:19:28.871Z,2.93
2023-01-27T08:22:19.836Z,2.99
2023-01-27T08:34:08.100Z,3.03
2023-01-27T08:36:53.641Z,3.06
2023-01-27T08:44:30.433Z,3.00
2023-01-27T08:47:15.899Z,2.99
2023-01-27T08:50:05.526Z,2.92
2023-01-27T08:52:50.857Z,2.92
2023-01-27T08:55:36.470Z,2.93
2023-01-27T08:58:21.923Z,2.98
2023-01-27T09:01:11.735Z,3.01
2023-01-27T09:03:57.436Z,3.04
2023-01-27T09:06:44.374Z,3.05
2023-01-27T09:09:30.004Z,3.08
2023-01-27T09:12:18.680Z,3.11
2023-01-27T09:15:04.441Z,3.14
2023-01-27T09:18:26.867Z,3.22
2023-01-27T09:21:12.376Z,3.32
2023-01-27T09:24:20.871Z,3.43
2023-01-27T09:27:06.500Z,3.55
2023-01-27T09:29:52.418Z,3.69
2023-01-27T09:32:38.902Z,3.82
2023-01-27T09:35:24.392Z,3.92
2023-01-27T09:38:11.601Z,3.98
2023-01-27T09:40:59.956Z,4.09
2023-01-27T09:43:51.961Z,4.16
2023-01-27T09:46:42.506Z,4.22
2023-01-27T09:49:34.598Z,4.29
2023-01-27T09:52:45.452Z,4.36
2023-01-27T09:55:51.137Z,4.49
2023-01-27T09:58:36.627Z,4.65
2023-01-27T10:01:32.549Z,4.79
2023-01-27T10:04:29.973Z,4.99
2023-01-27T10:07:22.641Z,5.11
2023-01-27T10:10:15.246Z,5.32
2023-01-27T10:13:19.915Z,5.45
2023-01-27T10:16:14.995Z,5.55
2023-01-27T10:19:13.176Z,5.61
2023-01-27T10:22:10.381Z,5.70
2023-01-27T10:25:23.350Z,5.70
2023-01-27T10:28:12.701Z,5.76
2023-01-27T10:30:58.441Z,5.76
2023-01-27T10:33:50.004Z,5.91
2023-01-27T10:36:43.774Z,5.93
2023-01-27T10:39:40.013Z,5.99
2023-01-27T10:42:44.904Z,6.03
2023-01-27T10:45:33.996Z,6.07
2023-01-27T10:48:46.058Z,6.13
2023-01-27T10:51:39.522Z,6.26
2023-01-27T10:54:32.645Z,6.30
2023-01-27T10:57:26.325Z,6.34
2023-01-27T11:03:27.552Z,6.40
2023-01-27T11:06:27.589Z,6.35
2023-01-27T11:09:26.190Z,6.28
2023-01-27T11:12:12.946Z,6.23
2023-01-27T11:14:59.639Z,6.20
2023-01-27T11:17:47.052Z,6.18
2023-01-27T11:20:54.180Z,6.08
2023-01-27T11:23:41.053Z,6.01
2023-01-27T11:26:30.611Z,5.89
2023-01-27T11:29:35.236Z,5.70
2023-01-27T11:32:43.374Z,5.54
2023-01-27T11:35:28.880Z,5.34
2023-01-27T11:38:15.980Z,5.26
2023-01-27T11:41:02.680Z,5.16
2023-01-27T11:43:48.268Z,5.11
2023-01-27T11:46:38.198Z,5.02
2023-01-27T11:49:44.154Z,5.00
2023-01-27T11:52:29.839Z,4.96
2023-01-27T11:55:15.498Z,4.87
2023-01-27T11:58:22.767Z,4.84
2023-01-27T12:01:15.702Z,4.77
2023-01-27T12:04:08.204Z,4.68
2023-01-27T12:06:55.706Z,4.63
2023-01-27T12:09:41.532Z,4.65
2023-01-27T12:12:28.512Z,4.60
2023-01-27T12:15:17.733Z,4.59
2023-01-27T12:18:13.262Z,4.62
2023-01-27T12:20:59.804Z,4.60
2023-01-27T12:23:50.348Z,4.57
2023-01-27T12:26:37.474Z,4.59
2023-01-27T12:29:27.526Z,4.63
2023-01-27T12:33:21.638Z,4.67
2023-01-27T12:36:22.649Z,4.63
2023-01-27T12:39:13.445Z,4.63
2023-01-27T12:42:06.429Z,4.59
2023-01-27T12:44:52.123Z,4.60
2023-01-27T12:47:37.989Z,4.57
2023-01-27T12:50:24.271Z,4.51
2023-01-27T12:53:12.989Z,4.44
2023-01-27T12:55:59.629Z,4.35
2023-01-27T12:58:54.690Z,4.32
2023-01-27T13:01:41.461Z,4.32
2023-01-27T13:04:27.495Z,4.34
2023-01-27T13:07:15.144Z,4.36
2023-01-27T13:10:04.868Z,4.37
2023-01-27T13:12:55.435Z,4.38
2023-01-27T13:15:41.173Z,4.36
2023-01-27T13:18:33.377Z,4.39
2023-01-27T13:21:19.183Z,4.39
2023-01-27T13:24:06.769Z,4.38
2023-01-27T13:26:52.172Z,4.36
2023-01-27T13:29:38.239Z,4.35
2023-01-27T13:32:27.805Z,4.37
2023-01-27T13:35:20.109Z,4.37
2023-01-27T13:38:11.155Z,4.41
2023-01-27T13:40:57.816Z,4.43
2023-01-27T13:43:44.554Z,4.43
2023-01-27T13:46:37.551Z,4.40
2023-01-27T13:49:36.275Z,4.34
2023-01-27T13:52:22.183Z,4.33
2023-01-27T13:55:12.006Z,4.25
2023-01-27T13:58:09.304Z,4.18
2023-01-27T14:00:54.966Z,4.17
2023-01-27T14:03:45.856Z,4.19
2023-01-27T14:06:37.620Z,4.18
2023-01-27T14:09:35.473Z,4.20
2023-01-27T14:12:28.134Z,4.19
2023-01-27T14:15:14.071Z,4.20
2023-01-27T14:18:02.804Z,4.23
2023-01-27T14:21:03.749Z,4.26
2023-01-27T14:24:01.215Z,4.26
2023-01-27T14:27:07.149Z,4.25
2023-01-27T14:30:13.741Z,4.20
2023-01-27T14:33:02.502Z,4.11
2023-01-27T14:35:59.425Z,4.01
2023-01-27T14:39:17.727Z,4.00
2023-01-27T14:42:27.603Z,3.94
2023-01-27T14:45:17.574Z,3.91
2023-01-27T14:48:21.735Z,3.92
2023-01-27T14:51:13.556Z,3.92
2023-01-27T14:54:15.517Z,3.94
2023-01-27T14:57:19.780Z,3.93
2023-01-27T15:00:14.162Z,3.89
2023-01-27T15:02:59.794Z,3.85
2023-01-27T15:05:49.243Z,3.82
2023-01-27T15:08:55.102Z,3.81
2023-01-27T15:11:52.180Z,3.75
2023-01-27T15:14:57.873Z,3.74
2023-01-27T15:17:52.711Z,3.69
2023-01-27T15:20:48.541Z,3.67
2023-01-27T15:23:52.965Z,3.61
2023-01-27T15:26:38.742Z,3.56
2023-01-27T15:29:26.362Z,3.55
2023-01-27T15:32:18.040Z,3.44
2023-01-27T15:35:29.454Z,3.34
2023-01-27T15:38:19.600Z,3.35
2023-01-27T15:41:08.075Z,3.31
2023-01-27T15:44:12.368Z,3.21
2023-01-27T15:47:28.659Z,3.22
2023-01-27T15:50:21.880Z,3.18
2023-01-27T15:53:14.432Z,3.16
2023-01-27T15:56:00.083Z,3.14
2023-01-27T15:59:14.844Z,3.13
2023-01-27T16:02:05.418Z,3.11
2023-01-27T16:05:03.948Z,3.10
2023-01-27T16:07:53.565Z,3.08
2023-01-27T16:10:40.088Z,3.06
2023-01-27T16:13:25.793Z,3.01
2023-01-27T16:16:17.801Z,2.99
2023-01-27T16:19:11.652Z,2.94
2023-01-27T16:22:09.626Z,2.96
2023-01-27T16:24:58.854Z,2.94
2023-01-27T16:28:11.432Z,2.93
2023-01-27T16:31:12.638Z,2.87
2023-01-27T16:33:58.855Z,2.85
2023-01-27T16:36:44.719Z,2.82
2023-01-27T16:39:39.090Z,2.79
2023-01-27T16:42:32.227Z,2.75
2023-01-27T16:45:25.293Z,2.75
2023-01-27T16:48:31.148Z,2.69
2023-01-27T16:51:20.550Z,2.69
2023-01-27T16:54:13.491Z,2.70
2023-01-27T16:56:59.259Z,2.69
2023-01-27T16:59:44.920Z,2.70
2023-01-27T17:02:32.131Z,2.64
2023-01-27T17:05:18.088Z,2.65
2023-01-27T17:08:04.984Z,2.65
2023-01-27T17:10:58.244Z,2.66
2023-01-27T17:13:45.205Z,2.62
2023-01-27T17:16:41.445Z,2.66
2023-01-27T17:19:27.741Z,2.64
2023-01-27T17:22:20.050Z,2.63
2023-01-27T17:25:07.764Z,2.59
2023-01-27T17:27:53.194Z,2.60
2023-01-27T17:30:42.280Z,2.58
2023-01-27T17:33:28.627Z,2.56
2023-01-27T17:36:14.370Z,2.54
2023-01-27T17:39:01.582Z,2.50
2023-01-27T17:41:47.389Z,2.48
2023-01-27T17:44:33.532Z,2.49
2023-01-27T17:47:19.589Z,2.49
2023-01-27T17:50:08.640Z,2.49
2023-01-27T17:52:54.144Z,2.50
2023-01-27T17:55:40.021Z,2.48
2023-01-27T17:58:26.359Z,2.46
2023-01-27T18:01:12.357Z,2.50
2023-01-27T18:03:58.132Z,2.51
2023-01-27T18:06:43.788Z,2.53
2023-01-27T18:09:29.800Z,2.50
2023-01-27T18:12:35.340Z,2.49
2023-01-27T18:15:41.110Z,2.50
2023-01-27T18:18:30.143Z,2.49
2023-01-27T18:21:17.500Z,2.48
2023-01-27T18:24:10.206Z,2.50
2023-01-27T18:26:56.641Z,2.49
2023-01-27T18:29:42.904Z,2.50
2023-01-27T18:32:29.489Z,2.51
2023-01-27T18:35:22.071Z,2.51
2023-01-27T18:38:24.848Z,2.54
2023-01-27T18:41:12.002Z,2.53
2023-01-27T18:43:59.159Z,2.55
2023-01-27T18:46:45.762Z,2.55
2023-01-27T18:49:34.329Z,2.54
2023-01-27T18:52:20.615Z,2.54
2023-01-27T18:55:10.698Z,2.52
2023-01-27T18:57:57.652Z,2.50
2023-01-27T19:00:46.030Z,2.50
2023-01-27T19:03:34.898Z,2.47
2023-01-27T19:06:20.737Z,2.46
2023-01-27T19:09:10.533Z,2.45
2023-01-27T19:11:57.292Z,2.42
2023-01-27T19:14:43.779Z,2.44
2023-01-27T19:17:30.140Z,2.43
2023-01-27T19:20:17.648Z,2.42
2023-01-27T19:23:04.678Z,2.42
2023-01-27T19:25:52.085Z,2.42
2023-01-27T19:28:39.105Z,2.42
2023-01-27T19:31:25.500Z,2.38
2023-01-27T19:34:11.711Z,2.36
2023-01-27T19:36:58.033Z,2.37
2023-01-27T19:39:45.465Z,2.37
2023-01-27T19:42:31.708Z,2.40
2023-01-27T19:45:19.243Z,2.42
2023-01-27T19:48:06.301Z,2.46
2023-01-27T19:50:53.217Z,2.46
2023-01-27T19:53:39.238Z,2.47
2023-01-27T19:56:25.374Z,2.50
2023-01-27T19:59:11.267Z,2.52
2023-01-27T20:01:58.234Z,2.54
2023-01-27T20:04:44.390Z,2.51
2023-01-27T20:07:30.630Z,2.53
2023-01-27T20:10:18.121Z,2.54
2023-01-27T20:13:04.923Z,2.50
2023-01-27T20:15:50.366Z,2.55
2023-01-27T20:18:35.935Z,2.59
2023-01-27T20:21:22.378Z,2.63
2023-01-27T20:24:07.919Z,2.68
2023-01-27T20:26:53.721Z,2.69
2023-01-27T20:29:39.717Z,2.74
2023-01-27T20:32:26.366Z,2.79
2023-01-27T20:35:13.041Z,2.82
2023-01-27T20:37:58.809Z,2.84
2023-01-27T20:40:44.527Z,2.87
2023-01-27T20:43:35.287Z,2.89
2023-01-27T20:46:21.296Z,2.93
2023-01-27T20:49:07.034Z,2.92
2023-01-27T20:51:52.776Z,2.96
2023-01-27T20:54:38.130Z,2.97
2023-01-27T20:57:25.418Z,2.99
2023-01-27T21:00:15.583Z,3.03
2023-01-27T21:03:04.198Z,3.06
2023-01-27T21:05:49.775Z,3.12
2023-01-27T21:08:35.264Z,3.17
2023-01-27T21:11:21.419Z,3.20
2023-01-27T21:14:07.107Z,3.23
2023-01-27T21:16:52.761Z,3.24
2023-01-27T21:19:38.345Z,3.24
2023-01-27T21:22:24.203Z,3.23
2023-01-27T21:25:11.030Z,3.23
2023-01-27T21:27:56.393Z,3.24
2023-01-27T21:30:42.408Z,3.28
2023-01-27T21:33:28.019Z,3.31
2023-01-27T21:36:13.924Z,3.35
2023-01-27T21:39:01.725Z,3.39
2023-01-27T21:41:53.184Z,3.42
2023-01-27T21:44:57.781Z,3.37
2023-01-27T21:47:43.409Z,3.48
2023-01-27T21:50:29.084Z,3.50
2023-01-27T21:53:14.565Z,3.51
2023-01-27T21:56:06.839Z,3.49
2023-01-27T21:58:52.371Z,3.46
2023-01-27T22:01:38.031Z,3.43
2023-01-27T22:04:23.735Z,3.42
2023-01-27T22:07:12.544Z,3.39
2023-01-27T22:09:58.256Z,3.37
2023-01-27T22:12:44.531Z,3.36
2023-01-27T22:15:30.625Z,3.38
2023-01-27T22:18:16.227Z,3.38
2023-01-27T22:21:02.308Z,3.37
2023-01-27T22:23:48.046Z,3.38
2023-01-27T22:26:35.155Z,3.38
2023-01-27T22:29:20.657Z,3.40
2023-01-27T22:32:07.603Z,3.37
2023-01-27T22:34:52.914Z,3.34
2023-01-27T22:37:38.985Z,3.30
2023-01-27T22:40:24.424Z,3.26
2023-01-27T22:43:10.754Z,3.21
2023-01-27T22:45:59.602Z,3.17
2023-01-27T22:48:49.193Z,3.14
2023-01-27T22:51:34.896Z,3.10
2023-01-27T22:54:20.307Z,3.06
2023-01-27T22:57:05.640Z,3.01
2023-01-27T22:59:51.552Z,2.97
2023-01-27T23:02:37.014Z,2.92
2023-01-27T23:05:22.921Z,2.87
2023-01-27T23:08:08.412Z,2.81
2023-01-27T23:10:54.239Z,2.75
2023-01-27T23:13:39.685Z,2.72
2023-01-27T23:16:25.602Z,2.69
2023-01-27T23:19:11.595Z,2.66
2023-01-27T23:21:57.031Z,2.64
2023-01-27T23:24:43.015Z,2.63
2023-01-27T23:27:28.684Z,2.58
2023-01-27T23:30:14.339Z,2.59
2023-01-27T23:32:59.746Z,2.59
2023-01-27T23:35:45.827Z,2.54
2023-01-27T23:38:33.193Z,2.52
2023-01-27T23:41:20.480Z,2.53
2023-01-27T23:44:38.431Z,2.51
2023-01-27T23:47:24.259Z,2.50
2023-01-27T23:50:10.155Z,2.49
2023-01-27T23:57:22.787Z,2.51
